Grafton, NE (68365)

3:43 PM CDT on September 29, 2016 (GMT -0500)
APRSWXNET | | Change Station

Elev 1669 ft 40.61 °N, 97.86 °W | Updated 31 minutes ago

Clear
Clear
67 °F
Feels Like 67 °F
N
5
Wind Variable Wind from NE
Gusts 9.0 mph

Today
High -- | Low -- °F
--% Chance of Precip.
Yesterday
High -- | Low -- °F
Precip. -- in
Pressure 30.37 in
Visibility 10.0 miles
Clouds Clear
Dew Point 48 °F
Humidity 50%
Rainfall in
Snow Depth Not available.
7:25 AM 7:15 PM
Waning Crescent, 1% visible
METAR KJYR 292035Z AUTO 06005KT 10SM CLR 19/09 A3037 RMK AO2
Pressure 30.37 in
Visibility 10.0 miles
Clouds Clear
Dew Point 48 °F
Humidity 50%
Rainfall in
Snow Depth Not available.
7:25 AM 7:15 PM
Waning Crescent, 1% visible
METAR KJYR 292035Z AUTO 06005KT 10SM CLR 19/09 A3037 RMK AO2

10-Day Weather Forecast

Almanac

Astronomy

Sep. 29, 2016 Rise Set
Actual Time
Civil Twilight
Nautical Twilight
Astronomical Twilight
Moon
Length of Visible Light
Length of Day
Tomorrow will be .
, % of the Moon is Illuminated

Today's Extremes

State Highs State Lows

Community

WunderPhotos

Upload Photos

1,942,564 photos uploaded!

WunderBlog® & News

Nearby

Air Quality

  Air Quality AQ Index Pollutant
Not available.

Snow Depth

Station Depth Elevation

Earthquake Activity

City Distance Mag. Time & Date
Minimum magnitude displayed is 2.5.

Coastal Water Temperatures

Place Temperature

Stations

Nearby Weather Stations

Station Location Temp. Windchill Dew Point Humidity Wind Precip. Elev Updated Type
                   

Watches & Warnings

There are currently no watches in effect.